sensor_id;sensor_type;location;lat;lon;timestamp;P1;durP1;ratioP1;P2;durP2;ratioP2
58260;SDS011;44058;52.898;6.502;2023-06-14T00:01:22;4.63;;;1.88;;
58260;SDS011;44058;52.898;6.502;2023-06-14T00:03:48;4.07;;;1.58;;
58260;SDS011;44058;52.898;6.502;2023-06-14T00:06:16;4.05;;;1.52;;
58260;SDS011;44058;52.898;6.502;2023-06-14T00:08:57;3.40;;;1.50;;
58260;SDS011;44058;52.898;6.502;2023-06-14T00:11:23;3.55;;;1.52;;
58260;SDS011;44058;52.898;6.502;2023-06-14T00:13:51;2.42;;;1.67;;
58260;SDS011;44058;52.898;6.502;2023-06-14T00:16:18;6.10;;;2.05;;
58260;SDS011;44058;52.898;6.502;2023-06-14T00:18:52;3.55;;;1.60;;
58260;SDS011;44058;52.898;6.502;2023-06-14T00:21:18;1.98;;;1.40;;
58260;SDS011;44058;52.898;6.502;2023-06-14T00:23:46;2.38;;;1.55;;
58260;SDS011;44058;52.898;6.502;2023-06-14T00:26:12;4.60;;;1.60;;
58260;SDS011;44058;52.898;6.502;2023-06-14T00:28:39;3.47;;;1.70;;
58260;SDS011;44058;52.898;6.502;2023-06-14T00:31:06;6.32;;;2.20;;
58260;SDS011;44058;52.898;6.502;2023-06-14T00:36:11;6.28;;;1.90;;
58260;SDS011;44058;52.898;6.502;2023-06-14T00:38:38;5.35;;;1.70;;
58260;SDS011;44058;52.898;6.502;2023-06-14T00:41:04;4.03;;;1.83;;
58260;SDS011;44058;52.898;6.502;2023-06-14T00:43:35;4.10;;;1.90;;
58260;SDS011;44058;52.898;6.502;2023-06-14T00:46:21;3.80;;;1.77;;
58260;SDS011;44058;52.898;6.502;2023-06-14T00:48:48;3.63;;;1.60;;
58260;SDS011;44058;52.898;6.502;2023-06-14T00:51:21;3.30;;;1.75;;
58260;SDS011;44058;52.898;6.502;2023-06-14T00:53:50;3.42;;;1.90;;
58260;SDS011;44058;52.898;6.502;2023-06-14T00:56:16;2.50;;;1.73;;
58260;SDS011;44058;52.898;6.502;2023-06-14T00:58:48;2.72;;;1.73;;
58260;SDS011;44058;52.898;6.502;2023-06-14T01:01:16;3.13;;;1.47;;
58260;SDS011;44058;52.898;6.502;2023-06-14T01:03:42;6.15;;;1.63;;
58260;SDS011;44058;52.898;6.502;2023-06-14T01:08:47;2.88;;;1.77;;
58260;SDS011;44058;52.898;6.502;2023-06-14T01:11:19;3.22;;;2.17;;
58260;SDS011;44058;52.898;6.502;2023-06-14T01:13:49;3.85;;;1.60;;
58260;SDS011;44058;52.898;6.502;2023-06-14T01:16:17;3.40;;;1.70;;
58260;SDS011;44058;52.898;6.502;2023-06-14T01:18:43;2.95;;;1.55;;
58260;SDS011;44058;52.898;6.502;2023-06-14T01:21:19;3.60;;;1.55;;
58260;SDS011;44058;52.898;6.502;2023-06-14T01:23:46;2.58;;;1.83;;
58260;SDS011;44058;52.898;6.502;2023-06-14T01:26:21;4.00;;;1.77;;
58260;SDS011;44058;52.898;6.502;2023-06-14T01:28:49;5.00;;;1.63;;
58260;SDS011;44058;52.898;6.502;2023-06-14T01:31:19;5.18;;;1.73;;
58260;SDS011;44058;52.898;6.502;2023-06-14T01:33:47;1.70;;;1.60;;
58260;SDS011;44058;52.898;6.502;2023-06-14T01:36:13;4.32;;;1.83;;
58260;SDS011;44058;52.898;6.502;2023-06-14T01:38:40;1.65;;;1.33;;
58260;SDS011;44058;52.898;6.502;2023-06-14T01:41:07;4.80;;;1.75;;
58260;SDS011;44058;52.898;6.502;2023-06-14T01:43:34;4.25;;;1.65;;
58260;SDS011;44058;52.898;6.502;2023-06-14T01:46:00;3.03;;;1.63;;
58260;SDS011;44058;52.898;6.502;2023-06-14T01:48:28;3.35;;;1.80;;
58260;SDS011;44058;52.898;6.502;2023-06-14T01:51:04;3.60;;;1.60;;
58260;SDS011;44058;52.898;6.502;2023-06-14T01:53:30;2.30;;;1.55;;
58260;SDS011;44058;52.898;6.502;2023-06-14T01:55:56;5.15;;;1.75;;
58260;SDS011;44058;52.898;6.502;2023-06-14T01:58:23;2.67;;;1.50;;
58260;SDS011;44058;52.898;6.502;2023-06-14T02:00:49;14.10;;;1.98;;
58260;SDS011;44058;52.898;6.502;2023-06-14T02:03:16;3.50;;;1.70;;
58260;SDS011;44058;52.898;6.502;2023-06-14T02:05:44;2.47;;;1.75;;
58260;SDS011;44058;52.898;6.502;2023-06-14T02:08:30;6.35;;;1.90;;
58260;SDS011;44058;52.898;6.502;2023-06-14T02:11:12;6.03;;;1.67;;
58260;SDS011;44058;52.898;6.502;2023-06-14T02:13:43;3.30;;;1.45;;
58260;SDS011;44058;52.898;6.502;2023-06-14T02:16:15;4.13;;;1.45;;
58260;SDS011;44058;52.898;6.502;2023-06-14T02:18:42;3.65;;;1.77;;
58260;SDS011;44058;52.898;6.502;2023-06-14T02:21:08;2.67;;;1.48;;
58260;SDS011;44058;52.898;6.502;2023-06-14T02:23:48;3.55;;;1.90;;
58260;SDS011;44058;52.898;6.502;2023-06-14T02:26:14;2.20;;;1.48;;
58260;SDS011;44058;52.898;6.502;2023-06-14T02:28:40;2.58;;;1.83;;
58260;SDS011;44058;52.898;6.502;2023-06-14T02:31:07;2.90;;;1.58;;
58260;SDS011;44058;52.898;6.502;2023-06-14T02:33:34;5.93;;;1.65;;
58260;SDS011;44058;52.898;6.502;2023-06-14T02:36:00;2.63;;;1.55;;
58260;SDS011;44058;52.898;6.502;2023-06-14T02:38:27;3.42;;;1.55;;
58260;SDS011;44058;52.898;6.502;2023-06-14T02:40:54;6.40;;;1.90;;
58260;SDS011;44058;52.898;6.502;2023-06-14T02:43:20;2.42;;;1.60;;
58260;SDS011;44058;52.898;6.502;2023-06-14T02:45:51;5.35;;;2.00;;
58260;SDS011;44058;52.898;6.502;2023-06-14T02:48:17;2.75;;;1.60;;
58260;SDS011;44058;52.898;6.502;2023-06-14T02:50:46;2.55;;;1.65;;
58260;SDS011;44058;52.898;6.502;2023-06-14T02:53:13;2.55;;;1.60;;
58260;SDS011;44058;52.898;6.502;2023-06-14T02:55:40;2.45;;;1.95;;
58260;SDS011;44058;52.898;6.502;2023-06-14T02:58:07;4.13;;;1.60;;
58260;SDS011;44058;52.898;6.502;2023-06-14T03:00:33;3.85;;;2.00;;
58260;SDS011;44058;52.898;6.502;2023-06-14T03:03:01;2.77;;;1.50;;
58260;SDS011;44058;52.898;6.502;2023-06-14T03:05:27;3.90;;;1.60;;
58260;SDS011;44058;52.898;6.502;2023-06-14T03:07:56;2.92;;;1.65;;
58260;SDS011;44058;52.898;6.502;2023-06-14T03:10:23;5.32;;;1.83;;
58260;SDS011;44058;52.898;6.502;2023-06-14T03:12:53;5.22;;;1.83;;
58260;SDS011;44058;52.898;6.502;2023-06-14T03:15:22;5.18;;;1.90;;
58260;SDS011;44058;52.898;6.502;2023-06-14T03:17:49;5.38;;;2.10;;
58260;SDS011;44058;52.898;6.502;2023-06-14T03:20:16;4.18;;;1.67;;
58260;SDS011;44058;52.898;6.502;2023-06-14T03:22:42;3.15;;;1.88;;
58260;SDS011;44058;52.898;6.502;2023-06-14T03:28:18;2.45;;;1.48;;
58260;SDS011;44058;52.898;6.502;2023-06-14T03:31:05;4.03;;;2.10;;
58260;SDS011;44058;52.898;6.502;2023-06-14T03:33:51;3.33;;;1.92;;
58260;SDS011;44058;52.898;6.502;2023-06-14T03:36:37;5.18;;;2.00;;
58260;SDS011;44058;52.898;6.502;2023-06-14T03:39:23;3.60;;;1.90;;
58260;SDS011;44058;52.898;6.502;2023-06-14T03:42:09;2.95;;;1.80;;
58260;SDS011;44058;52.898;6.502;2023-06-14T03:44:55;3.05;;;1.83;;
58260;SDS011;44058;52.898;6.502;2023-06-14T03:47:41;3.13;;;1.75;;
58260;SDS011;44058;52.898;6.502;2023-06-14T03:50:27;3.67;;;2.10;;
58260;SDS011;44058;52.898;6.502;2023-06-14T03:53:13;5.10;;;2.00;;
58260;SDS011;44058;52.898;6.502;2023-06-14T03:55:53;4.85;;;1.98;;
58260;SDS011;44058;52.898;6.502;2023-06-14T03:58:19;3.78;;;1.90;;
58260;SDS011;44058;52.898;6.502;2023-06-14T04:00:46;3.22;;;1.95;;
58260;SDS011;44058;52.898;6.502;2023-06-14T04:03:13;3.15;;;1.90;;
58260;SDS011;44058;52.898;6.502;2023-06-14T04:05:41;2.00;;;1.60;;
58260;SDS011;44058;52.898;6.502;2023-06-14T04:08:08;4.72;;;1.52;;
58260;SDS011;44058;52.898;6.502;2023-06-14T04:10:36;2.20;;;1.77;;
58260;SDS011;44058;52.898;6.502;2023-06-14T04:13:03;2.83;;;2.08;;
58260;SDS011;44058;52.898;6.502;2023-06-14T04:15:30;3.83;;;1.90;;
58260;SDS011;44058;52.898;6.502;2023-06-14T04:17:57;4.88;;;2.13;;
58260;SDS011;44058;52.898;6.502;2023-06-14T04:20:24;4.45;;;2.05;;
58260;SDS011;44058;52.898;6.502;2023-06-14T04:22:51;5.32;;;2.10;;
58260;SDS011;44058;52.898;6.502;2023-06-14T04:25:23;5.63;;;2.30;;
58260;SDS011;44058;52.898;6.502;2023-06-14T04:30:19;4.03;;;2.00;;
58260;SDS011;44058;52.898;6.502;2023-06-14T04:32:47;3.00;;;2.03;;
58260;SDS011;44058;52.898;6.502;2023-06-14T04:35:15;2.88;;;1.60;;
58260;SDS011;44058;52.898;6.502;2023-06-14T04:37:42;3.38;;;2.10;;
58260;SDS011;44058;52.898;6.502;2023-06-14T04:40:11;3.85;;;2.08;;
58260;SDS011;44058;52.898;6.502;2023-06-14T04:42:37;7.18;;;2.22;;
58260;SDS011;44058;52.898;6.502;2023-06-14T04:45:06;3.50;;;1.92;;
58260;SDS011;44058;52.898;6.502;2023-06-14T04:47:33;3.70;;;2.40;;
58260;SDS011;44058;52.898;6.502;2023-06-14T04:50:03;3.28;;;2.17;;
58260;SDS011;44058;52.898;6.502;2023-06-14T04:52:30;5.20;;;2.28;;
58260;SDS011;44058;52.898;6.502;2023-06-14T04:54:57;4.45;;;2.20;;
58260;SDS011;44058;52.898;6.502;2023-06-14T04:57:24;2.38;;;2.10;;
58260;SDS011;44058;52.898;6.502;2023-06-14T04:59:51;4.65;;;2.60;;
58260;SDS011;44058;52.898;6.502;2023-06-14T05:02:23;6.05;;;2.15;;
58260;SDS011;44058;52.898;6.502;2023-06-14T05:04:51;6.32;;;2.50;;
58260;SDS011;44058;52.898;6.502;2023-06-14T05:07:18;4.47;;;2.22;;
58260;SDS011;44058;52.898;6.502;2023-06-14T05:09:45;6.00;;;2.40;;
58260;SDS011;44058;52.898;6.502;2023-06-14T05:12:12;4.28;;;2.50;;
58260;SDS011;44058;52.898;6.502;2023-06-14T05:14:40;2.88;;;2.35;;
58260;SDS011;44058;52.898;6.502;2023-06-14T05:17:07;4.70;;;2.00;;
58260;SDS011;44058;52.898;6.502;2023-06-14T05:19:34;4.80;;;2.35;;
58260;SDS011;44058;52.898;6.502;2023-06-14T05:22:00;2.90;;;1.98;;
58260;SDS011;44058;52.898;6.502;2023-06-14T05:24:28;5.00;;;2.30;;
58260;SDS011;44058;52.898;6.502;2023-06-14T05:26:56;5.65;;;2.38;;
58260;SDS011;44058;52.898;6.502;2023-06-14T05:29:23;3.15;;;2.08;;
58260;SDS011;44058;52.898;6.502;2023-06-14T05:31:50;6.93;;;2.75;;
58260;SDS011;44058;52.898;6.502;2023-06-14T05:34:17;3.95;;;2.42;;
58260;SDS011;44058;52.898;6.502;2023-06-14T05:36:44;5.18;;;2.53;;
58260;SDS011;44058;52.898;6.502;2023-06-14T05:39:11;5.10;;;2.58;;
58260;SDS011;44058;52.898;6.502;2023-06-14T05:41:38;4.15;;;2.25;;
58260;SDS011;44058;52.898;6.502;2023-06-14T05:44:05;5.30;;;2.25;;
58260;SDS011;44058;52.898;6.502;2023-06-14T05:46:33;2.58;;;2.13;;
58260;SDS011;44058;52.898;6.502;2023-06-14T05:49:00;2.78;;;2.40;;
58260;SDS011;44058;52.898;6.502;2023-06-14T05:51:27;5.10;;;2.30;;
58260;SDS011;44058;52.898;6.502;2023-06-14T05:53:55;6.20;;;2.27;;
58260;SDS011;44058;52.898;6.502;2023-06-14T05:56:21;2.40;;;2.20;;
58260;SDS011;44058;52.898;6.502;2023-06-14T05:58:47;4.53;;;2.10;;
58260;SDS011;44058;52.898;6.502;2023-06-14T06:01:14;5.60;;;2.33;;
58260;SDS011;44058;52.898;6.502;2023-06-14T06:03:40;3.78;;;2.22;;
58260;SDS011;44058;52.898;6.502;2023-06-14T06:06:10;2.55;;;2.35;;
58260;SDS011;44058;52.898;6.502;2023-06-14T06:08:36;4.47;;;2.35;;
58260;SDS011;44058;52.898;6.502;2023-06-14T06:11:03;5.28;;;2.47;;
58260;SDS011;44058;52.898;6.502;2023-06-14T06:13:29;3.00;;;2.55;;
58260;SDS011;44058;52.898;6.502;2023-06-14T06:15:55;4.45;;;2.35;;
58260;SDS011;44058;52.898;6.502;2023-06-14T06:18:21;3.40;;;2.10;;
58260;SDS011;44058;52.898;6.502;2023-06-14T06:20:47;5.45;;;2.60;;
58260;SDS011;44058;52.898;6.502;2023-06-14T06:23:13;5.20;;;2.50;;
58260;SDS011;44058;52.898;6.502;2023-06-14T06:25:39;4.43;;;2.50;;
58260;SDS011;44058;52.898;6.502;2023-06-14T06:28:06;3.78;;;2.28;;
58260;SDS011;44058;52.898;6.502;2023-06-14T06:30:32;3.50;;;2.08;;
58260;SDS011;44058;52.898;6.502;2023-06-14T06:32:58;3.83;;;2.15;;
58260;SDS011;44058;52.898;6.502;2023-06-14T06:35:24;6.07;;;2.30;;
58260;SDS011;44058;52.898;6.502;2023-06-14T06:37:51;5.30;;;2.40;;
58260;SDS011;44058;52.898;6.502;2023-06-14T06:40:17;4.68;;;2.22;;
58260;SDS011;44058;52.898;6.502;2023-06-14T06:42:44;3.50;;;2.42;;
58260;SDS011;44058;52.898;6.502;2023-06-14T06:45:10;4.78;;;2.28;;
58260;SDS011;44058;52.898;6.502;2023-06-14T06:47:36;3.25;;;2.10;;
58260;SDS011;44058;52.898;6.502;2023-06-14T06:50:02;3.70;;;1.83;;
58260;SDS011;44058;52.898;6.502;2023-06-14T06:52:28;4.25;;;2.00;;
58260;SDS011;44058;52.898;6.502;2023-06-14T06:54:55;5.50;;;2.38;;
58260;SDS011;44058;52.898;6.502;2023-06-14T06:57:22;8.25;;;2.15;;
58260;SDS011;44058;52.898;6.502;2023-06-14T06:59:48;3.50;;;2.47;;
58260;SDS011;44058;52.898;6.502;2023-06-14T07:02:15;4.40;;;2.22;;
58260;SDS011;44058;52.898;6.502;2023-06-14T07:04:41;3.00;;;1.92;;
58260;SDS011;44058;52.898;6.502;2023-06-14T07:07:07;3.03;;;2.03;;
58260;SDS011;44058;52.898;6.502;2023-06-14T07:09:35;2.63;;;2.10;;
58260;SDS011;44058;52.898;6.502;2023-06-14T07:12:01;4.25;;;2.03;;
58260;SDS011;44058;52.898;6.502;2023-06-14T07:14:27;5.20;;;2.30;;
58260;SDS011;44058;52.898;6.502;2023-06-14T07:16:53;3.50;;;2.08;;
58260;SDS011;44058;52.898;6.502;2023-06-14T07:19:19;3.30;;;2.00;;
58260;SDS011;44058;52.898;6.502;2023-06-14T07:21:47;2.22;;;1.75;;
58260;SDS011;44058;52.898;6.502;2023-06-14T07:24:13;5.05;;;2.10;;
58260;SDS011;44058;52.898;6.502;2023-06-14T07:26:39;6.50;;;1.80;;
58260;SDS011;44058;52.898;6.502;2023-06-14T07:29:05;3.78;;;1.80;;
58260;SDS011;44058;52.898;6.502;2023-06-14T07:31:31;2.85;;;2.00;;
58260;SDS011;44058;52.898;6.502;2023-06-14T07:33:57;2.00;;;1.75;;
58260;SDS011;44058;52.898;6.502;2023-06-14T07:36:23;4.22;;;2.15;;
58260;SDS011;44058;52.898;6.502;2023-06-14T07:38:49;3.50;;;1.70;;
58260;SDS011;44058;52.898;6.502;2023-06-14T07:41:16;6.53;;;2.20;;
58260;SDS011;44058;52.898;6.502;2023-06-14T07:43:42;5.30;;;1.90;;
58260;SDS011;44058;52.898;6.502;2023-06-14T07:46:08;3.63;;;1.83;;
58260;SDS011;44058;52.898;6.502;2023-06-14T07:48:35;2.28;;;1.77;;
58260;SDS011;44058;52.898;6.502;2023-06-14T07:51:01;7.85;;;2.00;;
58260;SDS011;44058;52.898;6.502;2023-06-14T07:53:27;2.85;;;1.85;;
58260;SDS011;44058;52.898;6.502;2023-06-14T07:55:55;2.22;;;1.77;;
58260;SDS011;44058;52.898;6.502;2023-06-14T07:58:21;7.22;;;1.73;;
58260;SDS011;44058;52.898;6.502;2023-06-14T08:00:47;3.90;;;2.40;;
58260;SDS011;44058;52.898;6.502;2023-06-14T08:03:13;3.22;;;1.60;;
58260;SDS011;44058;52.898;6.502;2023-06-14T08:05:39;5.32;;;2.10;;
58260;SDS011;44058;52.898;6.502;2023-06-14T08:08:05;5.70;;;2.00;;
58260;SDS011;44058;52.898;6.502;2023-06-14T08:10:31;3.50;;;1.83;;
58260;SDS011;44058;52.898;6.502;2023-06-14T08:12:57;4.57;;;1.85;;
58260;SDS011;44058;52.898;6.502;2023-06-14T08:15:23;2.80;;;1.58;;
58260;SDS011;44058;52.898;6.502;2023-06-14T08:17:50;3.50;;;1.60;;
58260;SDS011;44058;52.898;6.502;2023-06-14T08:20:16;3.30;;;2.13;;
58260;SDS011;44058;52.898;6.502;2023-06-14T08:22:42;3.28;;;1.60;;
58260;SDS011;44058;52.898;6.502;2023-06-14T08:25:08;2.20;;;1.83;;
58260;SDS011;44058;52.898;6.502;2023-06-14T08:30:03;2.25;;;1.52;;
58260;SDS011;44058;52.898;6.502;2023-06-14T08:32:29;2.47;;;1.50;;
58260;SDS011;44058;52.898;6.502;2023-06-14T08:34:55;1.40;;;1.30;;
58260;SDS011;44058;52.898;6.502;2023-06-14T08:37:21;1.58;;;1.48;;
58260;SDS011;44058;52.898;6.502;2023-06-14T08:39:47;2.88;;;1.42;;
58260;SDS011;44058;52.898;6.502;2023-06-14T08:42:14;2.08;;;1.45;;
58260;SDS011;44058;52.898;6.502;2023-06-14T08:44:40;3.10;;;1.70;;
58260;SDS011;44058;52.898;6.502;2023-06-14T08:47:07;4.13;;;1.50;;
58260;SDS011;44058;52.898;6.502;2023-06-14T08:49:34;4.85;;;1.80;;
58260;SDS011;44058;52.898;6.502;2023-06-14T08:52:01;2.28;;;1.58;;
58260;SDS011;44058;52.898;6.502;2023-06-14T08:54:29;2.90;;;1.80;;
58260;SDS011;44058;52.898;6.502;2023-06-14T08:56:56;1.95;;;1.70;;
58260;SDS011;44058;52.898;6.502;2023-06-14T08:59:26;2.13;;;1.45;;
58260;SDS011;44058;52.898;6.502;2023-06-14T09:01:52;4.18;;;1.63;;
58260;SDS011;44058;52.898;6.502;2023-06-14T09:04:22;2.00;;;1.80;;
58260;SDS011;44058;52.898;6.502;2023-06-14T09:06:49;6.60;;;1.92;;
58260;SDS011;44058;52.898;6.502;2023-06-14T09:09:19;2.88;;;1.60;;
58260;SDS011;44058;52.898;6.502;2023-06-14T09:11:45;3.22;;;1.63;;
58260;SDS011;44058;52.898;6.502;2023-06-14T09:14:11;3.38;;;1.55;;
58260;SDS011;44058;52.898;6.502;2023-06-14T09:16:38;4.22;;;1.90;;
58260;SDS011;44058;52.898;6.502;2023-06-14T09:19:04;2.53;;;1.67;;
58260;SDS011;44058;52.898;6.502;2023-06-14T09:21:31;2.08;;;1.63;;
58260;SDS011;44058;52.898;6.502;2023-06-14T09:23:59;4.57;;;1.85;;
58260;SDS011;44058;52.898;6.502;2023-06-14T09:26:25;3.22;;;1.45;;
58260;SDS011;44058;52.898;6.502;2023-06-14T09:28:52;2.72;;;1.58;;
58260;SDS011;44058;52.898;6.502;2023-06-14T09:31:20;4.13;;;1.92;;
58260;SDS011;44058;52.898;6.502;2023-06-14T09:33:48;2.63;;;1.70;;
58260;SDS011;44058;52.898;6.502;2023-06-14T09:36:18;3.00;;;1.97;;
58260;SDS011;44058;52.898;6.502;2023-06-14T09:38:57;2.88;;;1.40;;
58260;SDS011;44058;52.898;6.502;2023-06-14T09:41:36;2.22;;;1.50;;
58260;SDS011;44058;52.898;6.502;2023-06-14T09:44:04;3.53;;;1.92;;
58260;SDS011;44058;52.898;6.502;2023-06-14T09:46:30;4.63;;;1.80;;
58260;SDS011;44058;52.898;6.502;2023-06-14T09:49:00;3.47;;;2.17;;
58260;SDS011;44058;52.898;6.502;2023-06-14T09:51:26;2.00;;;1.73;;
58260;SDS011;44058;52.898;6.502;2023-06-14T09:53:53;2.45;;;1.83;;
58260;SDS011;44058;52.898;6.502;2023-06-14T09:56:41;1.50;;;1.40;;
58260;SDS011;44058;52.898;6.502;2023-06-14T09:59:09;2.92;;;1.70;;
58260;SDS011;44058;52.898;6.502;2023-06-14T10:01:35;2.30;;;1.77;;
58260;SDS011;44058;52.898;6.502;2023-06-14T10:04:05;1.90;;;1.27;;
58260;SDS011;44058;52.898;6.502;2023-06-14T10:06:37;2.92;;;1.60;;
58260;SDS011;44058;52.898;6.502;2023-06-14T10:09:03;1.67;;;1.25;;
58260;SDS011;44058;52.898;6.502;2023-06-14T10:11:30;4.60;;;1.67;;
58260;SDS011;44058;52.898;6.502;2023-06-14T10:13:57;3.13;;;1.88;;
58260;SDS011;44058;52.898;6.502;2023-06-14T10:16:24;1.92;;;1.35;;
58260;SDS011;44058;52.898;6.502;2023-06-14T10:24:26;2.13;;;1.17;;
58260;SDS011;44058;52.898;6.502;2023-06-14T10:26:54;4.25;;;1.13;;
58260;SDS011;44058;52.898;6.502;2023-06-14T10:29:20;2.55;;;1.00;;
58260;SDS011;44058;52.898;6.502;2023-06-14T10:31:47;1.45;;;1.00;;
58260;SDS011;44058;52.898;6.502;2023-06-14T10:34:23;1.80;;;1.00;;
58260;SDS011;44058;52.898;6.502;2023-06-14T10:37:03;3.30;;;1.35;;
58260;SDS011;44058;52.898;6.502;2023-06-14T10:39:29;1.25;;;1.15;;
58260;SDS011;44058;52.898;6.502;2023-06-14T10:41:56;2.40;;;1.10;;
58260;SDS011;44058;52.898;6.502;2023-06-14T10:46:49;2.30;;;1.23;;
58260;SDS011;44058;52.898;6.502;2023-06-14T10:49:18;3.10;;;1.20;;
58260;SDS011;44058;52.898;6.502;2023-06-14T10:51:45;2.00;;;1.15;;
58260;SDS011;44058;52.898;6.502;2023-06-14T10:54:12;2.15;;;1.27;;
58260;SDS011;44058;52.898;6.502;2023-06-14T10:56:45;4.65;;;1.17;;
58260;SDS011;44058;52.898;6.502;2023-06-14T10:59:13;3.08;;;1.27;;
58260;SDS011;44058;52.898;6.502;2023-06-14T11:04:34;3.67;;;1.15;;
58260;SDS011;44058;52.898;6.502;2023-06-14T11:09:55;4.22;;;1.45;;
58260;SDS011;44058;52.898;6.502;2023-06-14T11:12:28;3.00;;;1.17;;
58260;SDS011;44058;52.898;6.502;2023-06-14T11:14:57;1.38;;;1.13;;
58260;SDS011;44058;52.898;6.502;2023-06-14T11:17:23;3.53;;;1.20;;
58260;SDS011;44058;52.898;6.502;2023-06-14T11:19:50;1.95;;;1.08;;
58260;SDS011;44058;52.898;6.502;2023-06-14T11:22:16;2.40;;;1.38;;
58260;SDS011;44058;52.898;6.502;2023-06-14T11:24:42;3.30;;;1.40;;
58260;SDS011;44058;52.898;6.502;2023-06-14T11:27:10;3.88;;;1.10;;
58260;SDS011;44058;52.898;6.502;2023-06-14T11:29:36;1.27;;;0.98;;
58260;SDS011;44058;52.898;6.502;2023-06-14T11:32:02;2.30;;;1.20;;
58260;SDS011;44058;52.898;6.502;2023-06-14T11:34:32;1.83;;;1.00;;
58260;SDS011;44058;52.898;6.502;2023-06-14T11:36:58;4.30;;;1.27;;
58260;SDS011;44058;52.898;6.502;2023-06-14T11:39:25;1.45;;;1.23;;
58260;SDS011;44058;52.898;6.502;2023-06-14T11:41:52;3.33;;;0.90;;
58260;SDS011;44058;52.898;6.502;2023-06-14T11:44:20;1.83;;;1.10;;
58260;SDS011;44058;52.898;6.502;2023-06-14T11:46:46;2.60;;;1.00;;
58260;SDS011;44058;52.898;6.502;2023-06-14T11:49:12;4.75;;;1.40;;
58260;SDS011;44058;52.898;6.502;2023-06-14T11:51:38;1.85;;;1.02;;
58260;SDS011;44058;52.898;6.502;2023-06-14T11:54:05;3.03;;;1.40;;
58260;SDS011;44058;52.898;6.502;2023-06-14T11:56:32;3.33;;;1.48;;
58260;SDS011;44058;52.898;6.502;2023-06-14T11:58:59;1.85;;;1.27;;
58260;SDS011;44058;52.898;6.502;2023-06-14T12:01:26;5.93;;;1.40;;
58260;SDS011;44058;52.898;6.502;2023-06-14T12:03:53;3.20;;;1.40;;
58260;SDS011;44058;52.898;6.502;2023-06-14T12:06:26;3.30;;;1.45;;
58260;SDS011;44058;52.898;6.502;2023-06-14T12:08:58;1.80;;;1.10;;
58260;SDS011;44058;52.898;6.502;2023-06-14T12:11:24;5.25;;;1.70;;
58260;SDS011;44058;52.898;6.502;2023-06-14T12:13:53;3.13;;;1.52;;
58260;SDS011;44058;52.898;6.502;2023-06-14T12:16:19;3.97;;;1.20;;
58260;SDS011;44058;52.898;6.502;2023-06-14T12:18:46;1.35;;;1.25;;
58260;SDS011;44058;52.898;6.502;2023-06-14T12:21:12;3.10;;;1.35;;
58260;SDS011;44058;52.898;6.502;2023-06-14T12:23:39;2.63;;;1.42;;
58260;SDS011;44058;52.898;6.502;2023-06-14T12:26:06;5.05;;;1.30;;
58260;SDS011;44058;52.898;6.502;2023-06-14T12:28:32;2.88;;;1.40;;
58260;SDS011;44058;52.898;6.502;2023-06-14T12:30:58;5.10;;;1.40;;
58260;SDS011;44058;52.898;6.502;2023-06-14T12:33:24;2.22;;;1.25;;
58260;SDS011;44058;52.898;6.502;2023-06-14T12:35:51;2.70;;;1.40;;
58260;SDS011;44058;52.898;6.502;2023-06-14T12:38:21;10.75;;;2.08;;
58260;SDS011;44058;52.898;6.502;2023-06-14T12:40:47;2.35;;;1.30;;
58260;SDS011;44058;52.898;6.502;2023-06-14T12:43:14;1.23;;;1.10;;
58260;SDS011;44058;52.898;6.502;2023-06-14T12:45:40;1.40;;;1.30;;
58260;SDS011;44058;52.898;6.502;2023-06-14T12:48:06;3.22;;;1.00;;
58260;SDS011;44058;52.898;6.502;2023-06-14T12:50:34;1.65;;;1.10;;
58260;SDS011;44058;52.898;6.502;2023-06-14T12:53:00;2.10;;;1.20;;
58260;SDS011;44058;52.898;6.502;2023-06-14T12:55:26;2.70;;;1.20;;
58260;SDS011;44058;52.898;6.502;2023-06-14T12:57:52;3.25;;;1.60;;
58260;SDS011;44058;52.898;6.502;2023-06-14T13:00:18;2.53;;;1.08;;
58260;SDS011;44058;52.898;6.502;2023-06-14T13:02:47;2.03;;;1.15;;
58260;SDS011;44058;52.898;6.502;2023-06-14T13:05:13;2.05;;;1.10;;
58260;SDS011;44058;52.898;6.502;2023-06-14T13:07:39;3.17;;;1.40;;
58260;SDS011;44058;52.898;6.502;2023-06-14T13:10:05;5.70;;;1.42;;
58260;SDS011;44058;52.898;6.502;2023-06-14T13:12:31;3.08;;;1.45;;
58260;SDS011;44058;52.898;6.502;2023-06-14T13:14:57;1.35;;;1.17;;
58260;SDS011;44058;52.898;6.502;2023-06-14T13:17:23;3.30;;;1.40;;
58260;SDS011;44058;52.898;6.502;2023-06-14T13:19:49;1.85;;;1.40;;
58260;SDS011;44058;52.898;6.502;2023-06-14T13:22:15;1.85;;;1.30;;
58260;SDS011;44058;52.898;6.502;2023-06-14T13:24:41;2.95;;;1.50;;
58260;SDS011;44058;52.898;6.502;2023-06-14T13:27:07;1.80;;;1.27;;
58260;SDS011;44058;52.898;6.502;2023-06-14T13:29:34;3.97;;;1.50;;
58260;SDS011;44058;52.898;6.502;2023-06-14T13:32:01;2.13;;;1.60;;
58260;SDS011;44058;52.898;6.502;2023-06-14T13:34:30;5.15;;;1.42;;
58260;SDS011;44058;52.898;6.502;2023-06-14T13:36:56;4.28;;;1.52;;
58260;SDS011;44058;52.898;6.502;2023-06-14T13:39:24;2.90;;;1.55;;
58260;SDS011;44058;52.898;6.502;2023-06-14T13:41:50;1.92;;;1.20;;
58260;SDS011;44058;52.898;6.502;2023-06-14T13:44:16;1.95;;;1.27;;
58260;SDS011;44058;52.898;6.502;2023-06-14T13:46:44;1.83;;;1.00;;
58260;SDS011;44058;52.898;6.502;2023-06-14T13:49:10;5.95;;;1.40;;
58260;SDS011;44058;52.898;6.502;2023-06-14T13:51:37;2.65;;;1.33;;
58260;SDS011;44058;52.898;6.502;2023-06-14T13:54:03;1.23;;;1.13;;
58260;SDS011;44058;52.898;6.502;2023-06-14T13:56:29;1.45;;;1.33;;
58260;SDS011;44058;52.898;6.502;2023-06-14T13:58:55;3.55;;;1.33;;
58260;SDS011;44058;52.898;6.502;2023-06-14T14:01:21;1.95;;;1.17;;
58260;SDS011;44058;52.898;6.502;2023-06-14T14:03:48;3.22;;;1.45;;
58260;SDS011;44058;52.898;6.502;2023-06-14T14:06:15;4.65;;;1.38;;
58260;SDS011;44058;52.898;6.502;2023-06-14T14:08:42;5.70;;;1.40;;
58260;SDS011;44058;52.898;6.502;2023-06-14T14:11:09;3.33;;;1.40;;
58260;SDS011;44058;52.898;6.502;2023-06-14T14:13:35;2.22;;;1.10;;
58260;SDS011;44058;52.898;6.502;2023-06-14T14:16:02;3.15;;;1.10;;
58260;SDS011;44058;52.898;6.502;2023-06-14T14:18:28;2.58;;;1.20;;
58260;SDS011;44058;52.898;6.502;2023-06-14T14:20:54;2.22;;;1.20;;
58260;SDS011;44058;52.898;6.502;2023-06-14T14:23:22;3.40;;;1.17;;
58260;SDS011;44058;52.898;6.502;2023-06-14T14:25:48;2.90;;;1.52;;
58260;SDS011;44058;52.898;6.502;2023-06-14T14:28:14;2.35;;;1.30;;
58260;SDS011;44058;52.898;6.502;2023-06-14T14:30:45;3.53;;;1.60;;
58260;SDS011;44058;52.898;6.502;2023-06-14T14:33:12;6.18;;;1.77;;
58260;SDS011;44058;52.898;6.502;2023-06-14T14:35:41;2.17;;;1.23;;
58260;SDS011;44058;52.898;6.502;2023-06-14T14:38:08;1.88;;;1.30;;
58260;SDS011;44058;52.898;6.502;2023-06-14T14:40:34;3.25;;;1.52;;
58260;SDS011;44058;52.898;6.502;2023-06-14T14:43:00;3.05;;;1.42;;
58260;SDS011;44058;52.898;6.502;2023-06-14T14:45:26;2.28;;;1.20;;
58260;SDS011;44058;52.898;6.502;2023-06-14T14:47:52;2.50;;;1.30;;
58260;SDS011;44058;52.898;6.502;2023-06-14T14:50:18;1.60;;;1.50;;
58260;SDS011;44058;52.898;6.502;2023-06-14T14:52:44;1.63;;;1.38;;
58260;SDS011;44058;52.898;6.502;2023-06-14T14:55:11;2.60;;;1.25;;
58260;SDS011;44058;52.898;6.502;2023-06-14T14:57:37;2.55;;;1.30;;
58260;SDS011;44058;52.898;6.502;2023-06-14T15:00:03;3.58;;;1.60;;
58260;SDS011;44058;52.898;6.502;2023-06-14T15:02:30;1.75;;;1.40;;
58260;SDS011;44058;52.898;6.502;2023-06-14T15:04:57;1.88;;;1.30;;
58260;SDS011;44058;52.898;6.502;2023-06-14T15:07:28;2.25;;;1.30;;
58260;SDS011;44058;52.898;6.502;2023-06-14T15:09:55;3.08;;;1.50;;
58260;SDS011;44058;52.898;6.502;2023-06-14T15:12:21;3.28;;;1.50;;
58260;SDS011;44058;52.898;6.502;2023-06-14T15:14:50;1.30;;;1.20;;
58260;SDS011;44058;52.898;6.502;2023-06-14T15:17:19;4.15;;;1.40;;
58260;SDS011;44058;52.898;6.502;2023-06-14T15:19:46;2.35;;;1.10;;